createdAt,value
2018-05-14T00:00:03.342Z,10.40
2018-05-14T00:02:32.220Z,10.40
2018-05-14T00:05:01.013Z,10.40
2018-05-14T00:07:29.835Z,10.30
2018-05-14T00:09:58.616Z,10.30
2018-05-14T00:12:27.448Z,10.40
2018-05-14T00:14:56.321Z,10.30
2018-05-14T00:17:25.907Z,10.30
2018-05-14T00:19:54.920Z,10.30
2018-05-14T00:22:23.744Z,10.30
2018-05-14T00:24:52.532Z,10.20
2018-05-14T00:27:21.403Z,10.20
2018-05-14T00:29:50.976Z,10.20
2018-05-14T00:32:19.949Z,10.20
2018-05-14T00:34:48.780Z,10.20
2018-05-14T00:37:18.019Z,10.20
2018-05-14T00:39:46.793Z,10.20
2018-05-14T00:42:15.621Z,10.20
2018-05-14T00:44:44.485Z,10.20
2018-05-14T00:47:13.345Z,10.10
2018-05-14T00:49:43.328Z,10.10
2018-05-14T00:52:12.100Z,10.10
2018-05-14T00:54:53.545Z,10.10
2018-05-14T00:57:22.599Z,10.10
2018-05-14T00:59:51.564Z,10.10
2018-05-14T01:02:21.359Z,10.00
2018-05-14T01:04:50.301Z,10.00
2018-05-14T01:07:19.096Z,9.90
2018-05-14T01:09:47.920Z,9.90
2018-05-14T01:12:16.652Z,9.80
2018-05-14T01:14:45.396Z,9.80
2018-05-14T01:17:14.145Z,9.80
2018-05-14T01:19:42.973Z,9.80
2018-05-14T01:22:11.696Z,9.80
2018-05-14T01:24:40.605Z,9.80
2018-05-14T01:27:10.314Z,9.80
2018-05-14T01:29:39.122Z,9.80
2018-05-14T01:32:08.671Z,9.80
2018-05-14T01:34:37.526Z,9.70
2018-05-14T01:37:06.265Z,9.70
2018-05-14T01:39:35.038Z,9.60
2018-05-14T01:42:03.778Z,9.60
2018-05-14T01:44:32.565Z,9.60
2018-05-14T01:47:02.133Z,9.50
2018-05-14T01:49:30.966Z,9.50
2018-05-14T01:52:00.455Z,9.40
2018-05-14T01:54:29.227Z,9.40
2018-05-14T01:56:58.789Z,9.40
2018-05-14T01:59:27.938Z,9.40
2018-05-14T02:01:57.058Z,9.40
2018-05-14T02:04:26.740Z,9.30
2018-05-14T02:06:56.443Z,9.30
2018-05-14T02:09:25.189Z,9.30
2018-05-14T02:11:54.161Z,9.30
2018-05-14T02:14:22.987Z,9.30
2018-05-14T02:16:51.741Z,9.30
2018-05-14T02:19:21.285Z,9.20
2018-05-14T02:21:50.055Z,9.20
2018-05-14T02:24:18.738Z,9.20
2018-05-14T02:26:48.241Z,9.20
2018-05-14T02:29:17.769Z,9.20
2018-05-14T02:31:46.604Z,9.20
2018-05-14T02:34:16.121Z,9.20
2018-05-14T02:36:44.957Z,9.10
2018-05-14T02:39:13.870Z,9.20
2018-05-14T02:41:42.625Z,9.10
2018-05-14T02:44:11.353Z,9.10
2018-05-14T02:46:40.878Z,9.10
2018-05-14T02:49:10.316Z,9.10
2018-05-14T02:51:39.072Z,9.10
2018-05-14T02:54:08.587Z,9.20
2018-05-14T02:56:38.362Z,9.20
2018-05-14T02:59:07.118Z,9.20
2018-05-14T03:01:35.993Z,9.20
2018-05-14T03:04:04.792Z,9.20
2018-05-14T03:06:33.799Z,9.20
2018-05-14T03:09:02.643Z,9.30
2018-05-14T03:11:31.773Z,9.30
2018-05-14T03:14:00.680Z,9.40
2018-05-14T03:16:29.623Z,9.40
2018-05-14T03:18:59.401Z,9.50
2018-05-14T03:21:28.913Z,9.60
2018-05-14T03:23:57.703Z,9.60
2018-05-14T03:26:26.533Z,9.60
2018-05-14T03:28:55.389Z,9.50
2018-05-14T03:31:25.168Z,9.50
2018-05-14T03:33:54.154Z,9.50
2018-05-14T03:36:22.969Z,9.50
2018-05-14T03:38:52.484Z,9.40
2018-05-14T03:41:21.302Z,9.40
2018-05-14T03:43:50.177Z,9.50
2018-05-14T03:46:19.709Z,9.60
2018-05-14T03:48:48.548Z,9.60
2018-05-14T03:51:18.105Z,9.80
2018-05-14T03:53:47.119Z,9.80
2018-05-14T03:56:16.346Z,10.00
2018-05-14T03:58:57.341Z,10.10
2018-05-14T04:01:38.317Z,10.20
2018-05-14T04:04:18.786Z,10.30
2018-05-14T04:06:47.562Z,10.40
2018-05-14T04:09:16.473Z,10.50
2018-05-14T04:11:45.388Z,10.60
2018-05-14T04:14:14.257Z,10.70
2018-05-14T04:16:43.090Z,10.90
2018-05-14T04:19:12.080Z,11.10
2018-05-14T04:21:42.069Z,11.40
2018-05-14T04:24:10.949Z,11.30
2018-05-14T04:26:39.730Z,11.50
2018-05-14T04:29:08.978Z,11.60
2018-05-14T04:31:37.903Z,11.70
2018-05-14T04:34:06.867Z,11.80
2018-05-14T04:36:35.870Z,11.90
2018-05-14T04:39:04.811Z,12.00
2018-05-14T04:41:33.536Z,12.10
2018-05-14T04:44:03.095Z,12.40
2018-05-14T04:46:31.947Z,12.30
2018-05-14T04:49:00.892Z,12.50
2018-05-14T04:51:29.750Z,12.70
2018-05-14T04:53:58.636Z,12.90
2018-05-14T04:56:27.509Z,13.10
2018-05-14T04:58:56.301Z,13.30
2018-05-14T05:01:25.097Z,13.50
2018-05-14T05:03:53.776Z,13.70
2018-05-14T05:06:22.586Z,13.90
2018-05-14T05:08:52.448Z,14.20
2018-05-14T05:11:21.395Z,14.20
2018-05-14T05:13:51.357Z,14.50
2018-05-14T05:16:20.480Z,14.50
2018-05-14T05:18:49.559Z,14.60
2018-05-14T05:21:18.498Z,14.80
2018-05-14T05:23:47.416Z,15.00
2018-05-14T05:26:16.268Z,15.20
2018-05-14T05:28:45.764Z,15.50
2018-05-14T05:31:15.637Z,15.70
2018-05-14T05:33:45.241Z,15.90
2018-05-14T05:36:14.447Z,15.80
2018-05-14T05:38:43.249Z,16.00
2018-05-14T05:41:12.097Z,16.20
2018-05-14T05:43:40.883Z,16.30
2018-05-14T05:46:10.473Z,16.70
2018-05-14T05:48:40.002Z,16.90
2018-05-14T05:51:09.219Z,16.80
2018-05-14T05:53:38.049Z,17.10
2018-05-14T05:56:07.621Z,17.50
2018-05-14T05:58:37.648Z,17.70
2018-05-14T06:01:06.572Z,17.70
2018-05-14T06:03:35.828Z,18.00
2018-05-14T06:06:04.689Z,18.30
2018-05-14T06:08:33.624Z,18.50
2018-05-14T06:11:02.506Z,18.70
2018-05-14T06:13:31.380Z,19.00
2018-05-14T06:16:00.252Z,19.30
2018-05-14T06:18:29.911Z,20.00
2018-05-14T06:20:59.043Z,20.00
2018-05-14T06:23:27.876Z,20.30
2018-05-14T06:25:56.622Z,20.80
2018-05-14T06:28:25.424Z,21.00
2018-05-14T06:30:54.332Z,21.10
2018-05-14T06:33:23.210Z,21.40
2018-05-14T06:35:52.349Z,21.80
2018-05-14T06:38:21.981Z,22.30
2018-05-14T06:40:50.893Z,22.30
2018-05-14T06:43:20.213Z,22.50
2018-05-14T06:45:49.355Z,22.60
2018-05-14T06:48:18.226Z,22.70
2018-05-14T06:50:47.252Z,22.90
2018-05-14T06:53:16.289Z,23.20
2018-05-14T06:55:45.261Z,23.20
2018-05-14T06:58:14.161Z,23.40
2018-05-14T07:00:44.173Z,23.40
2018-05-14T07:03:13.730Z,23.20
2018-05-14T07:05:42.709Z,23.10
2018-05-14T07:08:11.546Z,23.00
2018-05-14T07:10:40.365Z,23.40
2018-05-14T07:13:09.426Z,23.70
2018-05-14T07:15:38.206Z,23.90
2018-05-14T07:18:06.939Z,24.10
2018-05-14T07:20:35.845Z,24.40
2018-05-14T07:23:04.729Z,24.60
2018-05-14T07:25:33.597Z,24.80
2018-05-14T07:28:04.371Z,25.30
2018-05-14T07:30:33.534Z,25.20
2018-05-14T07:33:02.600Z,25.50
2018-05-14T07:35:32.239Z,25.40
2018-05-14T07:38:01.276Z,25.30
2018-05-14T07:40:30.388Z,25.40
2018-05-14T07:42:59.280Z,25.50
2018-05-14T07:45:30.132Z,25.00
2018-05-14T07:47:59.399Z,25.00
2018-05-14T07:50:28.240Z,24.90
2018-05-14T07:52:57.082Z,24.90
2018-05-14T07:55:26.901Z,24.60
2018-05-14T07:57:56.095Z,24.40
2018-05-14T08:00:25.324Z,24.20
2018-05-14T08:02:54.800Z,24.40
2018-05-14T08:05:23.861Z,24.40
2018-05-14T08:07:52.660Z,24.20
2018-05-14T08:10:21.517Z,24.40
2018-05-14T08:12:50.383Z,24.40
2018-05-14T08:15:19.208Z,24.50
2018-05-14T08:17:48.378Z,24.50
2018-05-14T08:20:17.209Z,24.60
2018-05-14T08:22:46.133Z,24.70
2018-05-14T08:25:15.727Z,24.60
2018-05-14T08:27:45.457Z,24.70
2018-05-14T08:30:14.334Z,24.70
2018-05-14T08:32:44.146Z,25.00
2018-05-14T08:35:13.738Z,25.30
2018-05-14T08:37:42.828Z,25.30
2018-05-14T08:40:11.826Z,25.30
2018-05-14T08:42:40.740Z,25.30
2018-05-14T08:45:10.354Z,25.50
2018-05-14T08:47:39.392Z,25.50
2018-05-14T08:50:08.300Z,25.60
2018-05-14T08:52:37.112Z,25.80
2018-05-14T08:55:06.197Z,26.10
2018-05-14T08:57:35.745Z,26.10
2018-05-14T09:00:04.740Z,26.00
2018-05-14T09:02:33.977Z,26.30
2018-05-14T09:05:02.900Z,26.30
2018-05-14T09:07:32.085Z,26.30
2018-05-14T09:10:00.994Z,26.30
2018-05-14T09:12:29.939Z,26.10
2018-05-14T09:14:58.909Z,26.30
2018-05-14T09:17:28.213Z,26.30
2018-05-14T09:19:57.730Z,26.20
2018-05-14T09:22:27.361Z,26.50
2018-05-14T09:24:56.152Z,26.50
2018-05-14T09:27:25.081Z,26.60
2018-05-14T09:29:54.033Z,26.70
2018-05-14T09:32:22.898Z,26.80
2018-05-14T09:34:51.845Z,26.80
2018-05-14T09:37:21.736Z,26.40
2018-05-14T09:39:50.563Z,26.40
2018-05-14T09:42:19.464Z,26.40
2018-05-14T09:44:48.224Z,26.50
2018-05-14T09:47:17.904Z,26.50
2018-05-14T09:49:47.135Z,26.40
2018-05-14T09:52:16.767Z,26.60
2018-05-14T09:54:50.363Z,26.60
2018-05-14T09:57:20.691Z,26.30
2018-05-14T09:59:50.406Z,26.30
2018-05-14T10:02:20.328Z,26.70
2018-05-14T10:04:49.570Z,26.90
2018-05-14T10:07:18.840Z,27.00
2018-05-14T10:09:49.657Z,27.00
2018-05-14T10:12:20.034Z,26.90
2018-05-14T10:14:49.380Z,26.80
2018-05-14T10:17:19.961Z,26.80
2018-05-14T10:19:50.284Z,26.80
2018-05-14T10:22:20.236Z,26.80
2018-05-14T10:24:50.300Z,26.80
2018-05-14T10:27:19.995Z,26.80
2018-05-14T10:29:51.332Z,27.40
2018-05-14T10:32:20.717Z,27.40
2018-05-14T10:34:50.679Z,27.70
2018-05-14T10:37:20.259Z,27.40
2018-05-14T10:39:49.980Z,27.60
2018-05-14T10:42:19.539Z,27.70
2018-05-14T10:44:48.388Z,27.70
2018-05-14T10:47:17.145Z,27.60
2018-05-14T10:49:46.903Z,27.70
2018-05-14T10:52:15.746Z,27.70
2018-05-14T10:54:44.791Z,27.80
2018-05-14T10:57:13.581Z,27.80
2018-05-14T10:59:42.366Z,27.70
2018-05-14T11:02:11.379Z,27.90
2018-05-14T11:04:41.182Z,27.80
2018-05-14T11:07:10.082Z,27.80
2018-05-14T11:09:39.841Z,28.40
2018-05-14T11:12:08.636Z,28.40
2018-05-14T11:14:37.522Z,28.40
2018-05-14T11:17:06.734Z,28.50
2018-05-14T11:19:35.734Z,28.40
2018-05-14T11:22:04.561Z,28.70
2018-05-14T11:24:33.651Z,28.50
2018-05-14T11:27:02.546Z,28.80
2018-05-14T11:29:31.734Z,28.50
2018-05-14T11:32:01.658Z,28.80
2018-05-14T11:34:30.597Z,28.50
2018-05-14T11:36:59.602Z,28.50
2018-05-14T11:39:28.380Z,28.50
2018-05-14T11:41:57.344Z,28.60
2018-05-14T11:44:26.399Z,28.90
2018-05-14T11:46:56.071Z,28.40
2018-05-14T11:49:24.849Z,28.40
2018-05-14T11:51:54.381Z,28.70
2018-05-14T11:54:23.923Z,28.80
2018-05-14T11:56:53.556Z,28.70
2018-05-14T11:59:22.420Z,28.70
2018-05-14T12:01:51.988Z,28.90
2018-05-14T12:04:21.573Z,28.70
2018-05-14T12:06:51.185Z,28.70
2018-05-14T12:09:20.844Z,28.70
2018-05-14T12:11:49.818Z,28.70
2018-05-14T12:14:18.884Z,28.60
2018-05-14T12:16:48.505Z,28.60
2018-05-14T12:19:17.382Z,28.50
2018-05-14T12:21:46.140Z,28.70
2018-05-14T12:24:15.114Z,28.90
2018-05-14T12:26:44.748Z,28.50
2018-05-14T12:29:13.659Z,28.40
2018-05-14T12:31:43.219Z,28.40
2018-05-14T12:34:11.993Z,28.40
2018-05-14T12:36:40.862Z,28.70
2018-05-14T12:39:09.806Z,28.60
2018-05-14T12:41:38.647Z,28.50
2018-05-14T12:44:07.667Z,28.80
2018-05-14T12:46:36.366Z,28.80
2018-05-14T12:49:05.420Z,28.80
2018-05-14T12:51:34.684Z,28.80
2018-05-14T12:54:03.518Z,29.10
2018-05-14T12:56:32.437Z,29.40
2018-05-14T12:59:01.557Z,29.40
2018-05-14T13:01:31.085Z,29.40
2018-05-14T13:04:00.585Z,29.20
2018-05-14T13:06:29.698Z,29.20
2018-05-14T13:08:58.629Z,29.20
2018-05-14T13:11:27.590Z,29.40
2018-05-14T13:13:56.666Z,29.00
2018-05-14T13:16:26.435Z,28.80
2018-05-14T13:18:55.710Z,28.80
2018-05-14T13:21:24.585Z,29.00
2018-05-14T13:23:53.397Z,29.20
2018-05-14T13:26:22.393Z,29.20
2018-05-14T13:28:52.062Z,28.90
2018-05-14T13:31:21.176Z,28.90
2018-05-14T13:33:50.106Z,28.60
2018-05-14T13:36:19.681Z,28.40
2018-05-14T13:38:48.500Z,28.50
2018-05-14T13:41:17.187Z,28.50
2018-05-14T13:43:46.121Z,28.50
2018-05-14T13:46:15.112Z,28.30
2018-05-14T13:48:43.860Z,28.30
2018-05-14T13:51:13.921Z,28.50
2018-05-14T13:53:43.757Z,28.40
2018-05-14T13:56:12.528Z,28.40
2018-05-14T13:58:41.592Z,28.40
2018-05-14T14:01:10.444Z,28.40
2018-05-14T14:03:39.356Z,28.50
2018-05-14T14:06:08.306Z,28.30
2018-05-14T14:08:37.380Z,28.50
2018-05-14T14:11:06.261Z,28.60
2018-05-14T14:13:35.830Z,28.30
2018-05-14T14:16:05.338Z,28.40
2018-05-14T14:18:34.105Z,28.30
2018-05-14T14:21:02.969Z,28.40
2018-05-14T14:23:31.927Z,28.70
2018-05-14T14:26:01.479Z,28.90
2018-05-14T14:28:30.474Z,28.90
2018-05-14T14:30:59.280Z,29.00
2018-05-14T14:33:28.192Z,28.90
2018-05-14T14:35:57.019Z,28.90
2018-05-14T14:38:26.718Z,29.10
2018-05-14T14:40:55.779Z,29.00
2018-05-14T14:43:24.770Z,28.90
2018-05-14T14:45:53.970Z,29.00
2018-05-14T14:48:23.706Z,28.50
2018-05-14T14:50:53.086Z,28.50
2018-05-14T14:53:22.006Z,28.80
2018-05-14T14:55:51.042Z,28.70
2018-05-14T14:58:19.845Z,28.90
2018-05-14T15:00:48.964Z,29.00
2018-05-14T15:03:18.181Z,29.00
2018-05-14T15:05:47.734Z,28.80
2018-05-14T15:08:16.493Z,28.80
2018-05-14T15:10:46.194Z,28.90
2018-05-14T15:13:15.691Z,29.00
2018-05-14T15:15:44.654Z,29.00
2018-05-14T15:18:13.604Z,28.80
2018-05-14T15:20:42.501Z,28.80
2018-05-14T15:23:11.394Z,28.20
2018-05-14T15:25:41.222Z,28.00
2018-05-14T15:28:10.078Z,28.00
2018-05-14T15:30:39.600Z,27.70
2018-05-14T15:33:08.342Z,27.70
2018-05-14T15:35:37.108Z,27.80
2018-05-14T15:38:06.017Z,28.00
2018-05-14T15:40:35.775Z,27.60
2018-05-14T15:43:04.615Z,27.40
2018-05-14T15:45:34.313Z,27.20
2018-05-14T15:48:03.143Z,27.20
2018-05-14T15:50:31.987Z,26.90
2018-05-14T15:53:01.653Z,27.60
2018-05-14T15:55:30.921Z,27.50
2018-05-14T15:57:59.737Z,27.90
2018-05-14T16:00:28.525Z,27.80
2018-05-14T16:02:57.353Z,28.00
2018-05-14T16:05:26.465Z,28.10
2018-05-14T16:20:55.583Z,28.10
2018-05-14T16:23:25.188Z,25.50
2018-05-14T16:25:54.232Z,25.50
2018-05-14T16:28:23.076Z,25.10
2018-05-14T16:30:51.905Z,24.80
2018-05-14T16:33:21.590Z,24.40
2018-05-14T16:35:50.427Z,24.40
2018-05-14T16:38:20.386Z,24.10
2018-05-14T16:40:49.968Z,24.00
2018-05-14T16:43:18.689Z,24.00
2018-05-14T16:45:47.698Z,23.80
2018-05-14T16:48:16.968Z,23.60
2018-05-14T16:50:46.842Z,23.50
2018-05-14T16:53:16.477Z,23.10
2018-05-14T16:55:46.357Z,23.10
2018-05-14T16:58:15.368Z,22.90
2018-05-14T17:00:44.265Z,22.80
2018-05-14T17:03:12.984Z,22.70
2018-05-14T17:05:43.139Z,22.50
2018-05-14T17:08:11.930Z,22.50
2018-05-14T17:10:40.795Z,22.40
2018-05-14T17:13:09.853Z,22.20
2018-05-14T17:15:39.990Z,21.90
2018-05-14T17:18:09.633Z,21.80
2018-05-14T17:20:39.113Z,21.80
2018-05-14T17:23:08.669Z,21.60
2018-05-14T17:25:37.501Z,21.60
2018-05-14T17:28:07.018Z,21.30
2018-05-14T17:30:37.024Z,21.10
2018-05-14T17:33:06.112Z,21.10
2018-05-14T17:35:36.913Z,21.00
2018-05-14T17:38:05.780Z,20.90
2018-05-14T17:40:34.645Z,20.80
2018-05-14T17:43:03.571Z,20.80
2018-05-14T17:45:32.760Z,20.70
2018-05-14T17:48:01.742Z,20.60
2018-05-14T17:50:30.841Z,20.40
2018-05-14T17:52:59.565Z,20.30
2018-05-14T17:55:28.365Z,20.20
2018-05-14T17:57:57.979Z,20.10
2018-05-14T18:00:27.076Z,20.10
2018-05-14T18:02:55.939Z,20.00
2018-05-14T18:05:24.755Z,19.90
2018-05-14T18:07:53.568Z,19.80
2018-05-14T18:10:22.336Z,19.80
2018-05-14T18:12:51.842Z,19.50
2018-05-14T18:15:21.793Z,19.50
2018-05-14T18:17:50.886Z,19.40
2018-05-14T18:20:25.601Z,19.20
2018-05-14T18:22:54.836Z,19.10
2018-05-14T18:25:32.590Z,19.00
2018-05-14T18:28:01.541Z,18.80
2018-05-14T18:30:36.742Z,18.60
2018-05-14T18:33:11.502Z,18.60
2018-05-14T18:35:44.396Z,18.60
2018-05-14T18:38:14.719Z,18.40
2018-05-14T18:40:43.914Z,18.40
2018-05-14T18:43:12.765Z,18.40
2018-05-14T18:45:41.570Z,18.40
2018-05-14T18:48:10.427Z,18.30
2018-05-14T18:50:39.235Z,18.30
2018-05-14T18:53:09.870Z,18.20
2018-05-14T18:55:38.609Z,18.20
2018-05-14T18:58:08.189Z,18.00
2018-05-14T19:00:37.198Z,18.00
2018-05-14T19:03:06.007Z,18.00
2018-05-14T19:05:35.574Z,17.90
2018-05-14T19:08:05.233Z,17.90
2018-05-14T19:10:39.503Z,17.90
2018-05-14T19:13:09.082Z,17.80
2018-05-14T19:15:44.289Z,17.80
2018-05-14T19:18:14.096Z,17.70
2018-05-14T19:20:43.259Z,17.70
2018-05-14T19:23:18.505Z,17.70
2018-05-14T19:25:47.166Z,17.70
2018-05-14T19:28:21.573Z,17.60
2018-05-14T19:30:50.572Z,17.60
2018-05-14T19:33:24.938Z,17.60
2018-05-14T19:35:59.196Z,17.50
2018-05-14T19:38:28.094Z,17.50
2018-05-14T19:40:56.939Z,17.30
2018-05-14T19:43:26.021Z,17.40
2018-05-14T19:45:54.974Z,17.30
2018-05-14T19:48:23.836Z,17.20
2018-05-14T19:50:52.842Z,17.20
2018-05-14T19:53:21.675Z,17.20
2018-05-14T19:55:50.458Z,17.20
2018-05-14T19:58:19.275Z,17.20
2018-05-14T20:00:48.909Z,17.20
2018-05-14T20:03:17.864Z,17.20
2018-05-14T20:05:46.722Z,17.10
2018-05-14T20:08:15.652Z,17.10
2018-05-14T20:10:45.254Z,17.00
2018-05-14T20:13:14.768Z,16.90
2018-05-14T20:15:43.545Z,16.90
2018-05-14T20:18:12.388Z,16.90
2018-05-14T20:20:41.619Z,16.90
2018-05-14T20:23:10.398Z,16.90
2018-05-14T20:25:39.506Z,16.80
2018-05-14T20:28:08.492Z,16.80
2018-05-14T20:30:43.038Z,16.70
2018-05-14T20:33:13.582Z,16.70
2018-05-14T20:35:42.333Z,16.70
2018-05-14T20:38:11.973Z,16.70
2018-05-14T20:40:46.758Z,16.70
2018-05-14T20:43:15.752Z,16.60
2018-05-14T20:45:44.495Z,16.60
2018-05-14T20:48:14.168Z,16.50
2018-05-14T20:50:43.056Z,16.50
2018-05-14T20:53:11.809Z,16.50
2018-05-14T20:55:40.573Z,16.50
2018-05-14T20:58:09.350Z,16.50
2018-05-14T21:00:38.205Z,16.50
2018-05-14T21:03:06.970Z,16.50
2018-05-14T21:05:35.955Z,16.40
2018-05-14T21:08:04.822Z,16.40
2018-05-14T21:10:33.509Z,16.40
2018-05-14T21:13:02.300Z,16.30
2018-05-14T21:15:31.796Z,16.20
2018-05-14T21:18:01.423Z,16.20
2018-05-14T21:20:30.234Z,16.20
2018-05-14T21:22:58.992Z,16.20
2018-05-14T21:25:27.836Z,16.10
2018-05-14T21:27:56.927Z,16.10
2018-05-14T21:30:25.758Z,16.00
2018-05-14T21:32:55.732Z,16.00
2018-05-14T21:35:24.676Z,15.90
2018-05-14T21:37:53.515Z,16.00
2018-05-14T21:40:22.496Z,15.90
2018-05-14T21:42:51.300Z,15.90
2018-05-14T21:45:20.134Z,16.00
2018-05-14T21:47:48.935Z,16.00
2018-05-14T21:50:17.715Z,15.90
2018-05-14T21:52:46.846Z,15.90
2018-05-14T21:55:15.585Z,15.90
2018-05-14T21:57:44.522Z,15.80
2018-05-14T22:00:16.759Z,15.80
2018-05-14T22:02:46.728Z,15.70
2018-05-14T22:05:16.338Z,15.70
2018-05-14T22:07:45.153Z,15.70
2018-05-14T22:10:14.088Z,15.70
2018-05-14T22:12:43.540Z,15.60
2018-05-14T22:15:12.495Z,15.60
2018-05-14T22:17:42.053Z,15.60
2018-05-14T22:20:11.726Z,15.60
2018-05-14T22:22:40.758Z,15.60
2018-05-14T22:25:10.024Z,15.60
2018-05-14T22:27:39.637Z,15.50
2018-05-14T22:30:08.537Z,15.50
2018-05-14T22:32:37.408Z,15.50
2018-05-14T22:35:06.204Z,15.50
2018-05-14T22:37:35.080Z,15.40
2018-05-14T22:40:07.449Z,15.50
2018-05-14T22:42:36.232Z,15.40
2018-05-14T22:45:05.101Z,15.40
2018-05-14T22:47:34.013Z,15.40
2018-05-14T22:50:03.001Z,15.40
2018-05-14T22:52:31.869Z,15.40
2018-05-14T22:55:00.696Z,15.40
2018-05-14T22:57:29.459Z,15.40
2018-05-14T22:59:58.631Z,15.50
2018-05-14T23:02:27.628Z,15.50
2018-05-14T23:04:56.773Z,15.50
2018-05-14T23:07:26.371Z,15.60
2018-05-14T23:09:55.207Z,15.50
2018-05-14T23:12:24.914Z,15.50
2018-05-14T23:14:54.490Z,15.40
2018-05-14T23:17:23.501Z,15.40
2018-05-14T23:19:52.531Z,15.40
2018-05-14T23:22:22.237Z,15.30
2018-05-14T23:24:51.028Z,15.30
2018-05-14T23:27:19.721Z,15.30
2018-05-14T23:29:48.625Z,15.30
2018-05-14T23:32:17.456Z,15.30
2018-05-14T23:34:46.346Z,15.30
2018-05-14T23:37:15.542Z,15.30
2018-05-14T23:39:44.610Z,15.30
2018-05-14T23:42:13.446Z,15.20
2018-05-14T23:44:42.357Z,15.30
2018-05-14T23:47:11.909Z,15.30
2018-05-14T23:49:40.834Z,15.20
2018-05-14T23:52:09.630Z,15.20
2018-05-14T23:54:38.650Z,15.20
2018-05-14T23:57:08.165Z,15.10
2018-05-14T23:59:36.949Z,15.10
